Time;durP1;ratioP1;P1;durP2;ratioP2;P2;SDS_P1;SDS_P2;PMS_P1;PMS_P2;Temp;Humidity;BMP_temperature;BMP_pressure;BME280_temperature;BME280_humidity;BME280_pressure;Samples;Min_cycle;Max_cycle;Signal;HPM_P1;HPM_P2
2022/03/27 00:02:18;;;;;;;;;34.00;24.00;;;;;;;;5088807;27;51024;-47
2022/03/27 00:05:03;;;;;;;;;13.75;12.50;;;;;;;;5081250;27;51178;-45
2022/03/27 00:07:49;;;;;;;;;33.00;20.50;;;;;;;;5086094;27;51046;-46
2022/03/27 00:11:24;;;;;;;;;37.25;19.75;;;;;;;;5087635;27;50971;-46
2022/03/27 00:13:39;;;;;;;;;33.25;20.25;;;;;;;;5087020;27;51094;-45
2022/03/27 00:16:25;;;;;;;;;42.50;21.50;;;;;;;;5081209;27;51222;-46
2022/03/27 00:19:16;;;;;;;;;32.00;21.25;;;;;;;;5080929;27;51003;-45
2022/03/27 00:22:22;;;;;;;;;34.50;22.25;;;;;;;;5091399;27;51079;-45
2022/03/27 00:25:07;;;;;;;;;34.00;20.50;;;;;;;;5082759;27;51094;-47
2022/03/27 00:28:06;;;;;;;;;33.50;23.00;;;;;;;;5096214;27;51107;-45
2022/03/27 00:30:52;;;;;;;;;28.00;20.75;;;;;;;;5099862;27;51243;-45
2022/03/27 00:33:38;;;;;;;;;25.75;19.00;;;;;;;;5099498;27;51503;-47
2022/03/27 00:36:22;;;;;;;;;33.50;21.25;;;;;;;;5085104;27;51102;-46
2022/03/27 00:39:12;;;;;;;;;34.00;24.50;;;;;;;;5088670;27;51446;-46
2022/03/27 00:42:03;;;;;;;;;26.50;20.50;;;;;;;;5095936;27;51040;-48
2022/03/27 00:44:50;;;;;;;;;35.25;22.25;;;;;;;;5092040;27;51025;-46
2022/03/27 00:47:36;;;;;;;;;27.75;18.00;;;;;;;;5090940;27;51145;-46
2022/03/27 00:50:25;;;;;;;;;31.50;21.25;;;;;;;;5087775;27;51232;-44
2022/03/27 00:53:18;;;;;;;;;28.75;21.75;;;;;;;;5081473;27;51094;-45
2022/03/27 00:56:15;;;;;;;;;35.50;22.50;;;;;;;;5090901;27;51083;-44
2022/03/27 00:59:00;;;;;;;;;32.50;21.50;;;;;;;;5084952;27;51448;-45
2022/03/27 01:01:45;;;;;;;;;30.75;18.50;;;;;;;;5088365;27;51210;-45
2022/03/27 01:04:31;;;;;;;;;31.50;18.75;;;;;;;;5094065;27;51443;-45
2022/03/27 01:07:19;;;;;;;;;29.75;19.00;;;;;;;;5082550;27;51125;-46
2022/03/27 01:10:08;;;;;;;;;22.00;21.00;;;;;;;;5088719;27;51020;-47
2022/03/27 01:13:19;;;;;;;;;36.00;21.75;;;;;;;;5083681;27;51102;-47
2022/03/27 01:16:12;;;;;;;;;36.00;24.75;;;;;;;;5088462;27;51137;-45
2022/03/27 01:18:59;;;;;;;;;35.25;20.50;;;;;;;;5093892;27;51129;-45
2022/03/27 01:21:47;;;;;;;;;27.00;12.75;;;;;;;;5099464;27;51100;-46
2022/03/27 01:24:32;;;;;;;;;37.00;22.25;;;;;;;;5091769;27;51072;-48
2022/03/27 01:27:18;;;;;;;;;31.75;20.25;;;;;;;;5083514;27;51169;-45
2022/03/27 01:30:03;;;;;;;;;27.75;20.00;;;;;;;;5095650;27;51510;-44
2022/03/27 01:32:57;;;;;;;;;35.00;24.25;;;;;;;;5089601;27;51198;-44
2022/03/27 01:35:42;;;;;;;;;26.25;20.25;;;;;;;;5103533;27;51048;-45
2022/03/27 01:38:27;;;;;;;;;33.75;20.50;;;;;;;;5103631;27;51117;-44
2022/03/27 01:41:19;;;;;;;;;31.25;21.75;;;;;;;;5102635;27;51612;-44
2022/03/27 01:44:16;;;;;;;;;33.00;23.50;;;;;;;;5094137;27;51237;-45
2022/03/27 01:47:01;;;;;;;;;35.25;24.00;;;;;;;;5091480;27;51004;-45
2022/03/27 01:49:46;;;;;;;;;21.00;17.50;;;;;;;;5101136;27;51366;-45
2022/03/27 01:52:32;;;;;;;;;36.75;21.50;;;;;;;;5083158;27;51103;-46
2022/03/27 01:55:26;;;;;;;;;30.75;19.25;;;;;;;;5085479;27;51205;-46
2022/03/27 01:58:32;;;;;;;;;26.50;19.25;;;;;;;;5089988;27;51123;-44
2022/03/27 02:01:20;;;;;;;;;34.00;19.75;;;;;;;;5087537;27;51128;-46
2022/03/27 02:04:06;;;;;;;;;23.00;15.25;;;;;;;;5083049;27;51736;-46
2022/03/27 02:07:16;;;;;;;;;40.00;22.50;;;;;;;;5094105;27;51465;-44
2022/03/27 02:10:01;;;;;;;;;24.25;16.00;;;;;;;;5088316;27;51188;-44
2022/03/27 02:12:55;;;;;;;;;31.50;21.00;;;;;;;;5092092;27;51247;-44
2022/03/27 02:15:57;;;;;;;;;17.25;8.25;;;;;;;;5096844;27;51464;-47
2022/03/27 02:18:57;;;;;;;;;31.25;20.75;;;;;;;;5086758;27;51055;-46
2022/03/27 02:21:43;;;;;;;;;28.50;23.00;;;;;;;;5082149;27;51138;-47
2022/03/27 02:24:32;;;;;;;;;36.00;23.50;;;;;;;;5083076;27;51114;-44
2022/03/27 02:27:16;;;;;;;;;29.75;18.75;;;;;;;;5099655;27;51019;-45
2022/03/27 02:30:15;;;;;;;;;25.25;16.00;;;;;;;;5087064;27;51136;-45
2022/03/27 02:32:59;;;;;;;;;34.50;19.50;;;;;;;;5102962;27;51077;-45
2022/03/27 02:35:47;;;;;;;;;29.25;23.50;;;;;;;;5085219;27;51064;-45
2022/03/27 02:38:42;;;;;;;;;35.25;18.75;;;;;;;;5099691;27;50965;-45
2022/03/27 02:41:26;;;;;;;;;28.00;17.75;;;;;;;;5086067;27;51180;-45
2022/03/27 02:44:22;;;;;;;;;24.50;17.75;;;;;;;;5094978;27;50972;-45
2022/03/27 02:47:09;;;;;;;;;31.00;16.25;;;;;;;;5090193;27;51564;-46
2022/03/27 02:50:15;;;;;;;;;29.25;20.50;;;;;;;;5081612;27;51176;-47
2022/03/27 02:53:05;;;;;;;;;29.50;21.50;;;;;;;;5082123;27;51023;-48
2022/03/27 02:56:04;;;;;;;;;32.25;22.50;;;;;;;;5082107;27;51072;-46
2022/03/27 02:59:00;;;;;;;;;29.00;18.00;;;;;;;;5089582;27;51244;-47
2022/03/27 03:01:56;;;;;;;;;28.25;19.25;;;;;;;;5088796;27;51130;-45
2022/03/27 03:04:41;;;;;;;;;27.25;18.25;;;;;;;;5097755;27;51030;-44
2022/03/27 03:07:26;;;;;;;;;34.00;23.00;;;;;;;;5081664;27;51161;-45
2022/03/27 03:10:12;;;;;;;;;30.25;19.00;;;;;;;;5090160;27;51122;-45
2022/03/27 03:12:58;;;;;;;;;24.75;19.75;;;;;;;;5067696;27;51085;-48
2022/03/27 03:16:00;;;;;;;;;22.25;17.00;;;;;;;;5082819;27;51152;-45
2022/03/27 03:18:51;;;;;;;;;27.00;17.75;;;;;;;;5085125;27;51178;-48
2022/03/27 03:21:35;;;;;;;;;24.50;19.50;;;;;;;;5095196;27;51183;-47
2022/03/27 03:24:19;;;;;;;;;32.00;18.25;;;;;;;;5080973;27;51107;-46
2022/03/27 03:27:04;;;;;;;;;24.25;19.50;;;;;;;;5092337;27;51058;-48
2022/03/27 03:29:50;;;;;;;;;27.25;14.75;;;;;;;;5082663;27;51163;-47
2022/03/27 03:32:36;;;;;;;;;35.75;20.00;;;;;;;;5080138;27;51334;-45
2022/03/27 03:35:21;;;;;;;;;33.00;19.25;;;;;;;;5080707;27;51355;-44
2022/03/27 03:38:06;;;;;;;;;29.25;22.00;;;;;;;;5089055;27;51677;-44
2022/03/27 03:40:56;;;;;;;;;29.25;17.75;;;;;;;;5087153;27;51166;-44
2022/03/27 03:43:46;;;;;;;;;24.50;18.00;;;;;;;;5090812;27;51119;-48
2022/03/27 03:46:41;;;;;;;;;27.50;20.25;;;;;;;;5079937;27;51090;-46
2022/03/27 03:49:29;;;;;;;;;28.00;19.50;;;;;;;;5079930;27;51202;-46
2022/03/27 03:52:17;;;;;;;;;27.00;19.75;;;;;;;;5080865;27;51110;-46
2022/03/27 03:55:13;;;;;;;;;29.25;20.50;;;;;;;;5080673;27;51103;-44
2022/03/27 03:58:20;;;;;;;;;27.00;19.50;;;;;;;;5097168;27;51555;-49
2022/03/27 04:01:05;;;;;;;;;20.75;17.25;;;;;;;;5095365;27;51210;-46
2022/03/27 04:03:49;;;;;;;;;28.50;17.75;;;;;;;;5099741;27;51133;-45
2022/03/27 04:06:35;;;;;;;;;27.75;17.25;;;;;;;;5089063;27;51198;-45
2022/03/27 04:09:24;;;;;;;;;23.50;15.50;;;;;;;;5088953;27;51177;-45
2022/03/27 04:12:09;;;;;;;;;31.75;20.75;;;;;;;;5095306;27;51078;-45
2022/03/27 04:14:57;;;;;;;;;24.50;17.50;;;;;;;;5081620;27;51189;-45
2022/03/27 04:17:44;;;;;;;;;28.00;18.50;;;;;;;;5082981;27;51846;-47
2022/03/27 04:20:34;;;;;;;;;35.50;24.50;;;;;;;;5087973;27;51133;-44
2022/03/27 04:23:19;;;;;;;;;30.25;21.00;;;;;;;;5090380;27;51483;-45
2022/03/27 04:26:30;;;;;;;;;26.00;17.75;;;;;;;;5081682;27;51004;-48
2022/03/27 04:29:17;;;;;;;;;18.50;16.75;;;;;;;;5098378;27;51503;-45
2022/03/27 04:32:25;;;;;;;;;28.25;18.50;;;;;;;;5086418;27;51135;-45
2022/03/27 04:35:12;;;;;;;;;24.00;16.25;;;;;;;;5098827;27;51168;-48
2022/03/27 04:37:59;;;;;;;;;25.00;19.50;;;;;;;;5081975;27;51241;-45
2022/03/27 04:40:52;;;;;;;;;27.00;17.50;;;;;;;;5075003;27;51396;-44
2022/03/27 04:43:37;;;;;;;;;22.50;17.50;;;;;;;;5093328;27;51116;-45
2022/03/27 04:46:31;;;;;;;;;23.50;18.75;;;;;;;;5085545;27;51068;-44
2022/03/27 04:49:17;;;;;;;;;23.75;15.00;;;;;;;;5094370;27;51106;-46
2022/03/27 04:52:01;;;;;;;;;21.25;19.75;;;;;;;;5072264;27;51304;-45
2022/03/27 04:54:52;;;;;;;;;26.75;20.25;;;;;;;;5089591;27;51208;-45
2022/03/27 04:57:38;;;;;;;;;29.50;19.50;;;;;;;;5079560;27;51096;-45
2022/03/27 05:00:27;;;;;;;;;30.00;21.25;;;;;;;;5084357;27;51100;-48
2022/03/27 05:03:21;;;;;;;;;24.00;16.25;;;;;;;;5100250;27;51129;-47
2022/03/27 05:06:15;;;;;;;;;25.00;16.25;;;;;;;;5100317;27;51426;-45
2022/03/27 05:09:04;;;;;;;;;31.50;22.00;;;;;;;;5100063;27;50995;-45
2022/03/27 05:11:50;;;;;;;;;25.00;18.50;;;;;;;;5100635;27;52061;-47
2022/03/27 05:14:35;;;;;;;;;27.75;19.00;;;;;;;;5093459;27;51550;-49
2022/03/27 05:17:40;;;;;;;;;24.50;12.00;;;;;;;;5079725;27;51209;-47
2022/03/27 05:20:29;;;;;;;;;35.00;19.00;;;;;;;;5081714;27;51384;-45
2022/03/27 05:23:14;;;;;;;;;34.75;21.75;;;;;;;;5084926;27;51214;-45
2022/03/27 05:26:00;;;;;;;;;34.50;25.25;;;;;;;;5079471;27;51523;-47
2022/03/27 05:28:45;;;;;;;;;33.00;23.25;;;;;;;;5079578;27;51153;-45
2022/03/27 05:31:33;;;;;;;;;36.00;24.50;;;;;;;;5080546;27;51160;-45
2022/03/27 05:34:18;;;;;;;;;31.00;22.75;;;;;;;;5076794;27;51087;-44
2022/03/27 05:37:04;;;;;;;;;36.50;26.00;;;;;;;;5079537;27;51265;-47
2022/03/27 05:39:49;;;;;;;;;31.75;22.50;;;;;;;;5079215;27;51403;-46
2022/03/27 05:42:34;;;;;;;;;35.00;24.25;;;;;;;;5099667;27;51134;-47
2022/03/27 05:45:20;;;;;;;;;31.25;19.00;;;;;;;;5099371;27;51370;-48
2022/03/27 05:48:05;;;;;;;;;27.00;22.50;;;;;;;;5099765;27;51091;-45
2022/03/27 05:50:51;;;;;;;;;26.50;22.75;;;;;;;;5099630;27;51437;-45
2022/03/27 05:53:35;;;;;;;;;30.75;24.50;;;;;;;;5099307;27;51028;-47
2022/03/27 05:56:20;;;;;;;;;37.25;22.00;;;;;;;;5100021;27;51520;-46
2022/03/27 05:59:05;;;;;;;;;33.50;24.00;;;;;;;;5101217;27;51159;-45
2022/03/27 06:01:50;;;;;;;;;37.25;23.00;;;;;;;;5085011;27;51193;-46
2022/03/27 06:04:34;;;;;;;;;33.50;26.50;;;;;;;;5092084;27;51357;-46
2022/03/27 06:07:29;;;;;;;;;29.25;22.25;;;;;;;;5071406;27;51150;-47
2022/03/27 06:10:14;;;;;;;;;44.75;30.50;;;;;;;;5101402;27;51707;-44
2022/03/27 06:13:01;;;;;;;;;35.25;28.00;;;;;;;;5073149;27;51186;-47
2022/03/27 06:15:46;;;;;;;;;34.50;26.00;;;;;;;;5102749;27;51059;-45
2022/03/27 06:18:30;;;;;;;;;38.50;24.75;;;;;;;;5102536;27;51007;-48
2022/03/27 06:21:24;;;;;;;;;37.00;24.50;;;;;;;;5070815;27;51089;-47
2022/03/27 06:24:18;;;;;;;;;40.25;27.25;;;;;;;;5097664;27;51369;-46
2022/03/27 06:27:09;;;;;;;;;42.75;27.00;;;;;;;;5103023;27;51086;-48
2022/03/27 06:29:54;;;;;;;;;42.50;27.75;;;;;;;;5102392;27;51756;-45
2022/03/27 06:32:39;;;;;;;;;34.50;22.50;;;;;;;;5082755;27;51242;-45
2022/03/27 06:35:25;;;;;;;;;40.25;25.00;;;;;;;;5096689;27;51625;-47
2022/03/27 06:38:13;;;;;;;;;44.75;32.25;;;;;;;;5102290;27;51170;-48
2022/03/27 06:40:58;;;;;;;;;43.50;31.75;;;;;;;;5102301;27;51495;-46
2022/03/27 06:43:42;;;;;;;;;47.75;32.25;;;;;;;;5102649;27;51118;-47
2022/03/27 06:46:27;;;;;;;;;45.25;34.25;;;;;;;;5102079;27;51135;-44
2022/03/27 06:49:11;;;;;;;;;48.75;35.25;;;;;;;;5101963;27;51111;-45
2022/03/27 06:51:56;;;;;;;;;51.75;38.25;;;;;;;;5102681;27;51011;-45
2022/03/27 06:54:43;;;;;;;;;64.00;45.25;;;;;;;;5101480;27;51087;-45
2022/03/27 06:57:29;;;;;;;;;66.25;46.25;;;;;;;;5068813;27;51229;-45
2022/03/27 07:03:18;;;;;;;;;58.00;43.50;;;;;;;;5080942;27;51256;-46
2022/03/27 07:06:13;;;;;;;;;56.25;41.50;;;;;;;;5081169;27;51406;-45
2022/03/27 07:09:04;;;;;;;;;60.00;44.00;;;;;;;;5090968;27;51140;-46
2022/03/27 07:11:49;;;;;;;;;61.00;45.50;;;;;;;;5084879;27;51713;-46
2022/03/27 07:14:33;;;;;;;;;59.00;43.25;;;;;;;;5080651;27;51177;-46
2022/03/27 07:17:18;;;;;;;;;55.75;44.25;;;;;;;;5099743;27;51003;-46
2022/03/27 07:20:08;;;;;;;;;55.50;42.75;;;;;;;;5101081;27;51385;-47
2022/03/27 07:23:12;;;;;;;;;57.00;43.75;;;;;;;;5084314;27;51070;-45
2022/03/27 07:25:57;;;;;;;;;63.25;44.75;;;;;;;;5098031;27;51554;-47
2022/03/27 07:28:41;;;;;;;;;56.00;43.25;;;;;;;;5088729;27;51221;-46
2022/03/27 07:31:28;;;;;;;;;59.75;44.25;;;;;;;;5100995;27;51090;-46
2022/03/27 07:34:16;;;;;;;;;62.75;44.25;;;;;;;;5081997;27;51240;-45
2022/03/27 07:37:00;;;;;;;;;61.75;47.00;;;;;;;;5081145;27;51664;-48
2022/03/27 07:39:45;;;;;;;;;65.50;48.00;;;;;;;;5081217;27;51229;-46
2022/03/27 07:42:30;;;;;;;;;66.00;49.50;;;;;;;;5081242;27;51126;-44
2022/03/27 07:45:22;;;;;;;;;63.75;48.50;;;;;;;;5098133;27;51377;-44
2022/03/27 07:48:07;;;;;;;;;59.25;44.00;;;;;;;;5101059;27;51068;-45
2022/03/27 07:50:54;;;;;;;;;60.75;45.25;;;;;;;;5080211;27;51036;-45
2022/03/27 07:53:39;;;;;;;;;56.25;42.75;;;;;;;;5081042;27;51193;-51
2022/03/27 07:56:25;;;;;;;;;54.25;41.75;;;;;;;;5083146;27;51664;-49
2022/03/27 07:59:10;;;;;;;;;53.75;40.75;;;;;;;;5091314;27;51049;-49
2022/03/27 08:01:55;;;;;;;;;59.25;43.50;;;;;;;;5081964;27;51144;-49
2022/03/27 08:04:39;;;;;;;;;55.00;42.25;;;;;;;;5090763;27;51133;-47
2022/03/27 08:07:24;;;;;;;;;65.00;49.00;;;;;;;;5100120;27;51055;-52
2022/03/27 08:10:14;;;;;;;;;65.25;50.00;;;;;;;;5099838;27;51572;-49
2022/03/27 08:13:04;;;;;;;;;58.25;40.75;;;;;;;;5096838;27;51110;-50
2022/03/27 08:15:50;;;;;;;;;56.00;44.00;;;;;;;;5095584;27;51153;-50
2022/03/27 08:18:35;;;;;;;;;56.75;41.25;;;;;;;;5092562;27;51113;-51
2022/03/27 08:21:19;;;;;;;;;62.00;45.50;;;;;;;;5078668;27;51483;-50
2022/03/27 08:24:06;;;;;;;;;61.25;46.25;;;;;;;;5077380;27;51158;-52
2022/03/27 08:27:06;;;;;;;;;60.75;44.25;;;;;;;;5076217;27;51634;-50
2022/03/27 08:29:54;;;;;;;;;58.75;44.50;;;;;;;;5096880;27;51205;-49
2022/03/27 08:32:48;;;;;;;;;64.50;48.75;;;;;;;;5098390;27;51070;-50
2022/03/27 08:35:32;;;;;;;;;61.75;46.75;;;;;;;;5086934;27;51141;-49
2022/03/27 08:38:26;;;;;;;;;53.50;42.50;;;;;;;;5095012;27;51215;-52
2022/03/27 08:41:14;;;;;;;;;55.75;43.25;;;;;;;;5098873;27;51129;-49
2022/03/27 08:44:18;;;;;;;;;56.25;42.25;;;;;;;;5084414;27;51671;-53
2022/03/27 08:47:11;;;;;;;;;51.25;41.00;;;;;;;;5075641;27;51094;-49
2022/03/27 08:50:18;;;;;;;;;55.75;42.00;;;;;;;;5096173;27;51104;-48
2022/03/27 08:53:07;;;;;;;;;55.25;41.25;;;;;;;;5098708;27;51108;-51
2022/03/27 08:56:03;;;;;;;;;47.25;33.50;;;;;;;;5082149;27;51126;-51
2022/03/27 08:58:48;;;;;;;;;56.50;40.75;;;;;;;;5095791;27;51136;-50
2022/03/27 09:01:53;;;;;;;;;54.75;42.50;;;;;;;;5086008;27;51460;-48
2022/03/27 09:04:39;;;;;;;;;52.75;42.00;;;;;;;;5082438;27;51170;-50
2022/03/27 09:07:50;;;;;;;;;59.00;43.75;;;;;;;;5078221;27;51174;-48
2022/03/27 09:10:35;;;;;;;;;50.75;40.25;;;;;;;;5074532;27;51080;-49
2022/03/27 09:13:21;;;;;;;;;51.75;40.75;;;;;;;;5092349;27;51571;-48
2022/03/27 09:16:10;;;;;;;;;61.50;45.00;;;;;;;;5056154;27;51156;-49
2022/03/27 09:18:58;;;;;;;;;59.50;43.25;;;;;;;;5079193;27;51563;-50
2022/03/27 09:21:50;;;;;;;;;52.25;38.25;;;;;;;;5091939;27;51462;-49
2022/03/27 09:24:35;;;;;;;;;37.25;30.25;;;;;;;;5090434;27;51174;-52
2022/03/27 09:27:29;;;;;;;;;44.50;30.25;;;;;;;;5078065;27;51080;-52
2022/03/27 09:30:14;;;;;;;;;36.25;22.50;;;;;;;;5076501;27;51113;-51
2022/03/27 09:33:02;;;;;;;;;27.75;19.50;;;;;;;;5101657;27;51725;-51
2022/03/27 09:35:47;;;;;;;;;30.25;23.25;;;;;;;;5103348;27;51176;-50
2022/03/27 09:38:32;;;;;;;;;23.00;19.75;;;;;;;;5102395;27;51129;-49
2022/03/27 09:41:36;;;;;;;;;31.25;22.00;;;;;;;;5082681;27;51157;-52
2022/03/27 09:44:23;;;;;;;;;32.25;25.25;;;;;;;;5081829;27;51487;-47
2022/03/27 09:47:11;;;;;;;;;24.25;17.50;;;;;;;;5081435;27;51188;-50
2022/03/27 09:49:55;;;;;;;;;35.50;19.50;;;;;;;;5096722;27;51141;-50
2022/03/27 09:52:50;;;;;;;;;23.25;18.50;;;;;;;;5101707;27;51468;-52
2022/03/27 09:55:34;;;;;;;;;37.00;20.50;;;;;;;;5090666;27;51154;-50
2022/03/27 09:58:54;;;;;;;;;26.25;17.00;;;;;;;;5095980;27;51223;-49
2022/03/27 10:01:42;;;;;;;;;24.25;18.00;;;;;;;;5098998;27;51002;-51
2022/03/27 10:04:27;;;;;;;;;29.25;21.25;;;;;;;;5101546;27;51224;-49
2022/03/27 10:07:19;;;;;;;;;28.25;19.75;;;;;;;;5101672;27;51448;-52
2022/03/27 10:10:04;;;;;;;;;23.50;17.75;;;;;;;;5102610;27;51031;-50
2022/03/27 10:12:52;;;;;;;;;23.25;18.25;;;;;;;;5101785;27;51103;-48
2022/03/27 10:15:37;;;;;;;;;25.75;19.00;;;;;;;;5068988;27;51195;-49
2022/03/27 10:18:25;;;;;;;;;26.00;18.50;;;;;;;;5101066;27;51564;-48
2022/03/27 10:21:13;;;;;;;;;23.25;18.50;;;;;;;;5087596;27;51481;-49
2022/03/27 10:24:17;;;;;;;;;24.25;18.00;;;;;;;;5081317;27;51168;-49
2022/03/27 10:27:14;;;;;;;;;24.75;15.75;;;;;;;;5080929;27;51162;-51
2022/03/27 10:30:14;;;;;;;;;26.75;18.75;;;;;;;;5081223;27;51457;-51
2022/03/27 10:33:07;;;;;;;;;23.25;20.00;;;;;;;;5099764;27;51070;-52
2022/03/27 10:36:05;;;;;;;;;31.75;23.00;;;;;;;;5083702;27;51484;-49
2022/03/27 10:38:50;;;;;;;;;23.25;16.75;;;;;;;;5095484;27;51129;-49
2022/03/27 10:41:42;;;;;;;;;26.00;19.75;;;;;;;;5102277;27;51366;-52
2022/03/27 10:44:52;;;;;;;;;34.50;23.25;;;;;;;;5095102;27;51048;-50
2022/03/27 10:47:41;;;;;;;;;33.25;21.50;;;;;;;;5065710;27;51252;-49
2022/03/27 10:50:25;;;;;;;;;24.50;20.25;;;;;;;;5101573;27;51075;-51
2022/03/27 10:53:10;;;;;;;;;32.00;22.00;;;;;;;;5081300;27;51095;-50
2022/03/27 10:55:56;;;;;;;;;29.25;21.50;;;;;;;;5080202;27;51948;-48
2022/03/27 10:58:41;;;;;;;;;30.75;19.75;;;;;;;;5084514;27;51102;-49
2022/03/27 11:01:27;;;;;;;;;22.25;19.25;;;;;;;;5089056;27;51330;-51
2022/03/27 11:04:15;;;;;;;;;33.75;20.50;;;;;;;;5083198;27;51267;-50
2022/03/27 11:07:20;;;;;;;;;26.50;19.25;;;;;;;;5089435;27;51296;-52
2022/03/27 11:10:24;;;;;;;;;34.50;20.50;;;;;;;;5085940;27;51464;-50
2022/03/27 11:13:32;;;;;;;;;25.75;18.00;;;;;;;;5086392;27;51047;-50
2022/03/27 11:16:16;;;;;;;;;21.75;18.00;;;;;;;;5071275;27;51134;-53
2022/03/27 11:19:07;;;;;;;;;23.50;16.25;;;;;;;;5084055;27;51083;-51
2022/03/27 11:21:55;;;;;;;;;20.25;16.75;;;;;;;;5083820;27;51242;-50
2022/03/27 11:24:39;;;;;;;;;19.00;15.75;;;;;;;;5087883;27;51145;-52
2022/03/27 11:27:43;;;;;;;;;25.50;16.25;;;;;;;;5083743;27;51119;-52
2022/03/27 11:30:27;;;;;;;;;24.75;19.00;;;;;;;;5086606;27;51253;-51
2022/03/27 11:33:12;;;;;;;;;23.75;18.50;;;;;;;;5066703;27;51192;-49
2022/03/27 11:36:11;;;;;;;;;24.75;17.25;;;;;;;;5085816;27;51143;-50
2022/03/27 11:38:58;;;;;;;;;26.00;16.75;;;;;;;;5081573;27;51557;-52
2022/03/27 11:41:46;;;;;;;;;23.50;19.00;;;;;;;;5081933;27;51274;-51
2022/03/27 11:47:37;;;;;;;;;19.00;15.50;;;;;;;;5081431;27;51352;-52
2022/03/27 11:50:27;;;;;;;;;24.00;19.00;;;;;;;;5084429;27;51209;-48
2022/03/27 11:53:17;;;;;;;;;24.00;16.75;;;;;;;;5078496;27;51168;-51
2022/03/27 11:56:09;;;;;;;;;24.50;18.50;;;;;;;;5067478;27;51143;-50
2022/03/27 11:59:04;;;;;;;;;24.25;18.00;;;;;;;;5080655;27;51070;-50
2022/03/27 12:01:51;;;;;;;;;30.00;19.75;;;;;;;;5092567;27;51189;-51
2022/03/27 12:04:55;;;;;;;;;27.75;18.75;;;;;;;;5099587;27;51257;-49
2022/03/27 12:08:07;;;;;;;;;25.00;16.75;;;;;;;;5080372;27;51166;-52
2022/03/27 12:11:06;;;;;;;;;24.00;18.50;;;;;;;;5080473;27;51197;-52
2022/03/27 12:13:56;;;;;;;;;28.50;15.75;;;;;;;;5079806;27;51582;-51
2022/03/27 12:16:59;;;;;;;;;20.50;15.25;;;;;;;;5095563;27;51159;-49
2022/03/27 12:20:05;;;;;;;;;33.50;22.25;;;;;;;;5080248;27;51100;-51
2022/03/27 12:22:51;;;;;;;;;36.00;19.00;;;;;;;;5059245;27;51281;-49
2022/03/27 12:25:37;;;;;;;;;30.00;18.75;;;;;;;;5087004;27;51193;-51
2022/03/27 12:31:26;;;;;;;;;27.00;19.00;;;;;;;;5100515;27;51616;-49
2022/03/27 12:34:14;;;;;;;;;29.50;17.00;;;;;;;;5081947;27;51167;-48
2022/03/27 12:37:09;;;;;;;;;34.00;19.75;;;;;;;;5079955;27;51048;-50
2022/03/27 12:40:14;;;;;;;;;21.75;18.75;;;;;;;;5096799;27;51118;-51
2022/03/27 12:43:14;;;;;;;;;19.50;13.00;;;;;;;;5080422;27;51095;-50
2022/03/27 12:45:58;;;;;;;;;30.50;18.25;;;;;;;;5078270;27;51083;-52
2022/03/27 12:48:43;;;;;;;;;26.00;16.50;;;;;;;;5078495;27;50984;-50
2022/03/27 12:51:27;;;;;;;;;23.75;19.50;;;;;;;;5075780;27;51061;-49
2022/03/27 12:54:12;;;;;;;;;24.50;18.25;;;;;;;;5084642;27;51422;-51
2022/03/27 12:57:21;;;;;;;;;23.50;12.00;;;;;;;;5072572;27;51439;-48
2022/03/27 13:00:13;;;;;;;;;27.25;19.50;;;;;;;;5079057;27;51149;-48
2022/03/27 13:03:11;;;;;;;;;25.00;16.50;;;;;;;;5096664;27;51120;-49
2022/03/27 13:05:58;;;;;;;;;25.50;17.75;;;;;;;;5088573;27;51122;-48
2022/03/27 13:08:45;;;;;;;;;24.75;13.75;;;;;;;;5085878;27;51186;-50
2022/03/27 13:11:30;;;;;;;;;27.75;18.00;;;;;;;;5093801;27;51490;-49
2022/03/27 13:14:15;;;;;;;;;22.00;16.75;;;;;;;;5088232;27;51205;-51
2022/03/27 13:17:01;;;;;;;;;26.50;17.25;;;;;;;;5090882;27;51280;-51
2022/03/27 13:19:48;;;;;;;;;22.25;16.75;;;;;;;;5085843;27;51123;-49
2022/03/27 13:22:33;;;;;;;;;27.00;21.25;;;;;;;;5085382;27;51438;-50
2022/03/27 13:25:17;;;;;;;;;22.50;18.50;;;;;;;;5091461;27;51343;-48
2022/03/27 13:28:02;;;;;;;;;30.00;17.50;;;;;;;;5094036;27;51180;-49
2022/03/27 13:30:46;;;;;;;;;26.50;18.50;;;;;;;;5077865;27;51448;-51
2022/03/27 13:33:31;;;;;;;;;25.25;21.00;;;;;;;;5087802;27;51260;-48
2022/03/27 13:36:16;;;;;;;;;24.50;15.75;;;;;;;;5092140;27;51467;-49
2022/03/27 13:39:01;;;;;;;;;29.25;18.00;;;;;;;;5084264;27;51201;-49
2022/03/27 13:44:50;;;;;;;;;27.25;17.50;;;;;;;;5087825;27;51833;-50
2022/03/27 13:47:34;;;;;;;;;26.75;18.00;;;;;;;;5090810;27;51144;-47
2022/03/27 13:50:21;;;;;;;;;25.75;18.50;;;;;;;;5087624;27;51187;-50
2022/03/27 13:53:05;;;;;;;;;33.50;19.25;;;;;;;;5085720;27;51146;-50
2022/03/27 13:55:50;;;;;;;;;25.75;16.50;;;;;;;;5088776;27;51529;-48
2022/03/27 13:58:34;;;;;;;;;25.00;17.00;;;;;;;;5086173;27;51218;-50
2022/03/27 14:01:19;;;;;;;;;25.25;16.50;;;;;;;;5087284;27;51112;-50
2022/03/27 14:04:04;;;;;;;;;22.00;16.75;;;;;;;;5087122;27;51260;-48
2022/03/27 14:06:48;;;;;;;;;17.50;10.75;;;;;;;;5086485;27;51171;-48
2022/03/27 14:09:34;;;;;;;;;20.50;15.25;;;;;;;;5077874;27;51170;-48
2022/03/27 14:12:18;;;;;;;;;23.25;17.25;;;;;;;;5092338;27;51099;-48
2022/03/27 14:15:05;;;;;;;;;24.25;18.75;;;;;;;;5084651;27;51163;-50
2022/03/27 14:18:02;;;;;;;;;27.25;20.25;;;;;;;;5084597;27;51205;-49
2022/03/27 14:20:51;;;;;;;;;23.25;18.75;;;;;;;;5082015;27;51157;-48
2022/03/27 14:23:36;;;;;;;;;33.25;17.75;;;;;;;;5082411;27;51218;-49
2022/03/27 14:26:20;;;;;;;;;31.00;19.50;;;;;;;;5079698;27;53134;-50
2022/03/27 14:29:05;;;;;;;;;26.00;20.00;;;;;;;;5083286;27;51151;-47
2022/03/27 14:31:52;;;;;;;;;19.50;17.75;;;;;;;;5090310;27;51199;-47
2022/03/27 14:34:36;;;;;;;;;27.25;17.50;;;;;;;;5082042;27;51367;-48
2022/03/27 14:37:24;;;;;;;;;30.25;19.00;;;;;;;;5083886;27;51217;-49
2022/03/27 14:40:10;;;;;;;;;31.00;17.50;;;;;;;;5078751;27;51223;-48
2022/03/27 14:42:55;;;;;;;;;29.25;18.75;;;;;;;;5075494;27;51036;-49
2022/03/27 14:45:39;;;;;;;;;23.50;19.00;;;;;;;;5091941;27;51409;-48
2022/03/27 14:48:24;;;;;;;;;27.00;20.50;;;;;;;;5088990;27;52180;-48
2022/03/27 14:51:09;;;;;;;;;19.25;16.50;;;;;;;;5089263;27;51498;-51
2022/03/27 14:56:56;;;;;;;;;29.00;21.50;;;;;;;;5083701;27;51296;-50
2022/03/27 14:59:42;;;;;;;;;26.75;18.00;;;;;;;;5084500;27;51052;-48
2022/03/27 15:02:28;;;;;;;;;24.75;17.75;;;;;;;;5101220;27;51438;-50
2022/03/27 15:05:13;;;;;;;;;24.75;18.75;;;;;;;;5088123;27;51128;-52
2022/03/27 15:07:57;;;;;;;;;21.25;17.75;;;;;;;;5092963;27;51119;-50
2022/03/27 15:10:45;;;;;;;;;28.25;20.50;;;;;;;;5083215;27;51570;-49
2022/03/27 15:13:30;;;;;;;;;28.75;20.75;;;;;;;;5085546;27;51072;-50
2022/03/27 15:16:14;;;;;;;;;22.50;18.25;;;;;;;;5089029;27;51538;-51
2022/03/27 15:18:59;;;;;;;;;17.25;12.75;;;;;;;;5088612;27;51204;-48
2022/03/27 15:21:43;;;;;;;;;28.00;19.50;;;;;;;;5084681;27;51230;-48
2022/03/27 15:24:27;;;;;;;;;32.00;20.25;;;;;;;;5076983;27;51064;-51
2022/03/27 15:27:12;;;;;;;;;26.00;18.75;;;;;;;;5084437;27;51146;-50
2022/03/27 15:29:56;;;;;;;;;24.00;18.75;;;;;;;;5079709;27;51202;-48
2022/03/27 15:32:41;;;;;;;;;28.25;23.00;;;;;;;;5086417;27;51071;-50
2022/03/27 15:35:36;;;;;;;;;26.75;19.75;;;;;;;;5083472;27;51145;-50
2022/03/27 15:38:20;;;;;;;;;28.00;18.75;;;;;;;;5085879;27;51187;-47
2022/03/27 15:41:05;;;;;;;;;30.00;19.75;;;;;;;;5083314;27;51226;-49
2022/03/27 15:43:49;;;;;;;;;27.25;24.75;;;;;;;;5072473;27;51183;-49
2022/03/27 15:46:34;;;;;;;;;28.75;21.50;;;;;;;;5081986;27;51180;-47
2022/03/27 15:49:19;;;;;;;;;18.50;13.25;;;;;;;;5080313;27;51247;-48
2022/03/27 15:52:04;;;;;;;;;36.25;18.25;;;;;;;;5087293;27;51452;-47
2022/03/27 15:54:48;;;;;;;;;25.50;18.25;;;;;;;;5082431;27;51240;-48
2022/03/27 15:57:33;;;;;;;;;30.25;22.00;;;;;;;;5087313;27;51095;-50
2022/03/27 16:00:18;;;;;;;;;30.25;21.50;;;;;;;;5080138;27;51461;-48
2022/03/27 16:03:02;;;;;;;;;22.25;20.25;;;;;;;;5080670;27;51149;-49
2022/03/27 16:05:47;;;;;;;;;30.00;20.00;;;;;;;;5080802;27;51625;-51
2022/03/27 16:08:32;;;;;;;;;27.25;20.50;;;;;;;;5078845;27;51269;-49
2022/03/27 16:11:17;;;;;;;;;33.75;20.50;;;;;;;;5084101;27;51313;-48
2022/03/27 16:14:03;;;;;;;;;27.00;20.00;;;;;;;;5083257;27;51134;-48
2022/03/27 16:16:47;;;;;;;;;29.75;24.00;;;;;;;;5087291;27;51161;-48
2022/03/27 16:19:32;;;;;;;;;29.50;23.50;;;;;;;;5082122;27;51199;-48
2022/03/27 16:22:16;;;;;;;;;28.00;22.00;;;;;;;;5087799;27;51255;-48
2022/03/27 16:25:00;;;;;;;;;32.25;24.25;;;;;;;;5082038;27;51149;-51
2022/03/27 16:27:45;;;;;;;;;25.25;20.25;;;;;;;;5089119;27;51145;-47
2022/03/27 16:30:29;;;;;;;;;37.00;23.25;;;;;;;;5085002;27;51662;-49
2022/03/27 16:33:14;;;;;;;;;31.25;23.75;;;;;;;;5082585;27;51115;-50
2022/03/27 16:35:59;;;;;;;;;17.50;10.00;;;;;;;;5080674;27;51208;-48
2022/03/27 16:38:43;;;;;;;;;30.25;22.00;;;;;;;;5080613;27;51497;-47